Time;durP1;ratioP1;P1;durP2;ratioP2;P2;SDS_P1;SDS_P2;PMS_P1;PMS_P2;Temp;Humidity;BMP_temperature;BMP_pressure;BME280_temperature;BME280_humidity;BME280_pressure;Samples;Min_cycle;Max_cycle;Signal;HPM_P1;HPM_P2
2021/07/22 00:00:06;;;;;;;11.30;7.45;;;;;;;;;;4402760;32;20609;-54
2021/07/22 00:02:31;;;;;;;13.20;7.85;;;;;;;;;;4403714;32;20336;-55
2021/07/22 00:04:57;;;;;;;9.00;7.15;;;;;;;;;;4403514;32;20221;-54
2021/07/22 00:07:22;;;;;;;13.70;7.95;;;;;;;;;;4403381;32;20314;-55
2021/07/22 00:09:48;;;;;;;9.25;7.07;;;;;;;;;;4403597;32;20255;-55
2021/07/22 00:12:14;;;;;;;14.30;9.63;;;;;;;;;;4403334;32;20245;-55
2021/07/22 00:14:40;;;;;;;13.55;9.27;;;;;;;;;;4402311;32;20237;-55
2021/07/22 00:17:07;;;;;;;11.30;8.25;;;;;;;;;;4403466;32;20233;-55
2021/07/22 00:19:33;;;;;;;11.98;7.05;;;;;;;;;;4403564;32;20302;-55
2021/07/22 00:22:00;;;;;;;9.60;7.28;;;;;;;;;;4402938;32;20217;-56
2021/07/22 00:24:26;;;;;;;11.82;7.40;;;;;;;;;;4403514;32;20294;-55
2021/07/22 00:26:52;;;;;;;10.93;6.95;;;;;;;;;;4403227;32;20295;-56
2021/07/22 00:29:18;;;;;;;9.98;7.75;;;;;;;;;;4402186;32;20589;-54
2021/07/22 00:31:44;;;;;;;9.55;6.32;;;;;;;;;;4395526;32;20292;-56
2021/07/22 00:34:09;;;;;;;8.55;6.60;;;;;;;;;;4387762;32;20303;-55
2021/07/22 00:36:34;;;;;;;7.43;6.60;;;;;;;;;;4388162;32;20265;-55
2021/07/22 00:39:00;;;;;;;8.70;6.70;;;;;;;;;;4401187;32;20650;-55
2021/07/22 00:41:26;;;;;;;10.13;7.55;;;;;;;;;;4403101;32;20311;-56
2021/07/22 00:43:51;;;;;;;11.73;7.03;;;;;;;;;;4406053;32;20217;-54
2021/07/22 00:46:16;;;;;;;10.35;7.07;;;;;;;;;;4406646;32;20297;-55
2021/07/22 00:48:42;;;;;;;8.45;7.15;;;;;;;;;;4406428;32;20287;-55
2021/07/22 00:51:08;;;;;;;9.10;7.57;;;;;;;;;;4406152;32;20635;-55
2021/07/22 00:53:35;;;;;;;8.88;6.28;;;;;;;;;;4406602;32;20221;-55
2021/07/22 00:56:01;;;;;;;9.15;6.72;;;;;;;;;;4405952;32;20536;-56
2021/07/22 00:58:26;;;;;;;11.43;6.32;;;;;;;;;;4405900;32;20336;-55
2021/07/22 01:00:51;;;;;;;11.27;7.37;;;;;;;;;;4404235;32;20617;-55
2021/07/22 01:03:17;;;;;;;12.65;7.32;;;;;;;;;;4405555;32;20672;-55
2021/07/22 01:05:42;;;;;;;9.18;6.00;;;;;;;;;;4405985;32;20281;-56
2021/07/22 01:08:08;;;;;;;10.23;6.90;;;;;;;;;;4405676;32;20213;-55
2021/07/22 01:10:33;;;;;;;9.50;6.50;;;;;;;;;;4405776;32;20221;-55
2021/07/22 01:12:59;;;;;;;10.10;6.45;;;;;;;;;;4405832;32;20205;-55
2021/07/22 01:15:24;;;;;;;11.57;7.10;;;;;;;;;;4405897;32;20686;-55
2021/07/22 01:17:50;;;;;;;11.02;7.72;;;;;;;;;;4405743;32;20324;-55
2021/07/22 01:20:20;;;;;;;10.07;7.37;;;;;;;;;;4405042;32;20276;-55
2021/07/22 01:22:47;;;;;;;10.20;7.03;;;;;;;;;;4406213;32;20604;-55
2021/07/22 01:25:14;;;;;;;17.35;8.70;;;;;;;;;;4405638;32;20206;-55
2021/07/22 01:27:41;;;;;;;12.40;7.07;;;;;;;;;;4405827;32;20210;-54
2021/07/22 01:30:07;;;;;;;7.97;6.55;;;;;;;;;;4405866;32;20307;-56
2021/07/22 01:32:32;;;;;;;9.68;7.28;;;;;;;;;;4405361;32;20268;-55
2021/07/22 01:34:58;;;;;;;11.73;7.28;;;;;;;;;;4405432;32;20589;-55
2021/07/22 01:37:24;;;;;;;13.20;7.30;;;;;;;;;;4405334;32;20361;-55
2021/07/22 01:39:49;;;;;;;10.48;6.68;;;;;;;;;;4405002;32;20225;-55
2021/07/22 01:42:15;;;;;;;8.63;6.45;;;;;;;;;;4405694;32;20320;-57
2021/07/22 01:44:40;;;;;;;11.68;7.50;;;;;;;;;;4405680;32;20528;-55
2021/07/22 01:47:06;;;;;;;10.07;6.75;;;;;;;;;;4405290;32;20733;-55
2021/07/22 01:49:32;;;;;;;11.15;6.43;;;;;;;;;;4405807;32;20221;-55
2021/07/22 01:52:01;;;;;;;8.75;7.10;;;;;;;;;;4404058;32;20744;-55
2021/07/22 01:54:30;;;;;;;9.50;6.65;;;;;;;;;;4404109;32;20330;-55
2021/07/22 01:57:00;;;;;;;8.40;6.55;;;;;;;;;;4404724;32;20342;-55
2021/07/22 01:59:26;;;;;;;11.05;5.68;;;;;;;;;;4403151;32;20551;-54
2021/07/22 02:01:51;;;;;;;10.15;6.82;;;;;;;;;;4403426;32;20299;-55
2021/07/22 02:04:17;;;;;;;9.68;6.75;;;;;;;;;;4405260;32;20226;-55
2021/07/22 02:06:42;;;;;;;9.40;6.82;;;;;;;;;;4404884;32;20296;-54
2021/07/22 02:09:08;;;;;;;12.60;6.85;;;;;;;;;;4405115;32;20253;-55
2021/07/22 02:11:33;;;;;;;10.27;6.75;;;;;;;;;;4404717;32;20565;-55
2021/07/22 02:13:59;;;;;;;8.57;6.82;;;;;;;;;;4405141;32;20255;-55
2021/07/22 02:16:24;;;;;;;10.15;6.00;;;;;;;;;;4404533;32;20285;-54
2021/07/22 02:18:50;;;;;;;6.87;6.07;;;;;;;;;;4404902;32;20287;-55
2021/07/22 02:21:16;;;;;;;13.20;7.25;;;;;;;;;;4404446;32;20353;-56
2021/07/22 02:23:42;;;;;;;7.93;5.80;;;;;;;;;;4404895;32;20764;-54
2021/07/22 02:26:08;;;;;;;8.70;6.82;;;;;;;;;;4404907;32;20311;-55
2021/07/22 02:28:35;;;;;;;10.30;7.45;;;;;;;;;;4404841;32;20457;-54
2021/07/22 02:31:01;;;;;;;9.68;7.18;;;;;;;;;;4404537;32;20346;-55
2021/07/22 02:33:26;;;;;;;9.40;6.78;;;;;;;;;;4403376;32;20795;-56
2021/07/22 02:35:51;;;;;;;9.18;7.12;;;;;;;;;;4403540;32;20288;-55
2021/07/22 02:38:17;;;;;;;10.00;6.57;;;;;;;;;;4404575;32;20648;-55
2021/07/22 02:40:42;;;;;;;9.45;6.40;;;;;;;;;;4403942;32;20346;-55
2021/07/22 02:43:08;;;;;;;12.30;7.35;;;;;;;;;;4404218;32;20257;-55
2021/07/22 02:45:36;;;;;;;10.63;7.45;;;;;;;;;;4403130;32;20614;-55
2021/07/22 02:48:02;;;;;;;14.73;6.68;;;;;;;;;;4404292;32;20197;-55
2021/07/22 02:50:28;;;;;;;8.15;5.93;;;;;;;;;;4404666;32;20296;-56
2021/07/22 02:52:53;;;;;;;9.45;6.53;;;;;;;;;;4403986;32;20291;-55
2021/07/22 02:55:18;;;;;;;8.68;6.97;;;;;;;;;;4404334;32;20268;-55
2021/07/22 02:57:44;;;;;;;10.32;5.57;;;;;;;;;;4404397;32;20271;-55
2021/07/22 03:00:10;;;;;;;10.38;6.32;;;;;;;;;;4403055;32;20307;-55
2021/07/22 03:02:35;;;;;;;9.75;6.37;;;;;;;;;;4404303;32;20355;-57
2021/07/22 03:05:01;;;;;;;9.35;6.00;;;;;;;;;;4403808;32;20210;-54
2021/07/22 03:07:26;;;;;;;9.73;6.78;;;;;;;;;;4404216;32;20281;-55
2021/07/22 03:09:51;;;;;;;12.32;6.30;;;;;;;;;;4404207;32;20221;-55
2021/07/22 03:12:17;;;;;;;13.68;7.07;;;;;;;;;;4403694;32;20272;-54
2021/07/22 03:14:42;;;;;;;9.82;6.25;;;;;;;;;;4404271;32;20222;-55
2021/07/22 03:17:08;;;;;;;11.68;6.43;;;;;;;;;;4403758;32;20288;-55
2021/07/22 03:19:34;;;;;;;9.40;6.80;;;;;;;;;;4403902;32;20555;-54
2021/07/22 03:21:59;;;;;;;10.27;6.60;;;;;;;;;;4403760;32;20689;-55
2021/07/22 03:24:25;;;;;;;12.20;7.28;;;;;;;;;;4403714;32;20662;-55
2021/07/22 03:26:51;;;;;;;10.80;7.07;;;;;;;;;;4403742;32;20276;-54
2021/07/22 03:29:17;;;;;;;11.50;6.53;;;;;;;;;;4403459;32;20356;-55
2021/07/22 03:31:42;;;;;;;7.55;6.00;;;;;;;;;;4396278;32;20277;-54
2021/07/22 03:34:08;;;;;;;10.05;6.90;;;;;;;;;;4388184;32;20562;-55
2021/07/22 03:36:33;;;;;;;8.23;6.37;;;;;;;;;;4388406;32;20669;-55
2021/07/22 03:38:59;;;;;;;9.88;6.50;;;;;;;;;;4401699;32;20228;-54
2021/07/22 03:41:26;;;;;;;10.65;6.65;;;;;;;;;;4403615;32;20678;-55
2021/07/22 03:43:51;;;;;;;11.18;6.75;;;;;;;;;;4403413;32;20278;-55
2021/07/22 03:46:17;;;;;;;10.00;7.03;;;;;;;;;;4403413;32;20308;-55
2021/07/22 03:48:43;;;;;;;11.40;7.65;;;;;;;;;;4403448;32;20221;-55
2021/07/22 03:51:09;;;;;;;10.18;7.25;;;;;;;;;;4403000;32;20342;-55
2021/07/22 03:53:34;;;;;;;8.75;6.03;;;;;;;;;;4403495;32;20218;-55
2021/07/22 03:56:01;;;;;;;10.90;7.07;;;;;;;;;;4403281;32;20325;-55
2021/07/22 03:58:27;;;;;;;11.00;7.43;;;;;;;;;;4403563;32;20549;-55
2021/07/22 04:00:56;;;;;;;10.23;5.20;;;;;;;;;;4392361;32;20280;-54
2021/07/22 04:03:22;;;;;;;12.77;5.62;;;;;;;;;;4386644;32;20679;-54
2021/07/22 04:05:47;;;;;;;6.85;5.45;;;;;;;;;;4388359;32;20265;-54
2021/07/22 04:08:13;;;;;;;7.25;4.82;;;;;;;;;;4397456;32;20642;-55
2021/07/22 04:10:38;;;;;;;7.35;4.97;;;;;;;;;;4403302;32;20638;-54
2021/07/22 04:13:04;;;;;;;7.55;4.80;;;;;;;;;;4403051;32;20220;-54
2021/07/22 04:15:29;;;;;;;8.00;5.50;;;;;;;;;;4403819;32;20264;-55
2021/07/22 04:17:56;;;;;;;10.18;4.97;;;;;;;;;;4397272;32;20296;-55
2021/07/22 04:20:23;;;;;;;12.37;5.12;;;;;;;;;;4395267;32;20288;-56
2021/07/22 04:22:49;;;;;;;7.80;5.35;;;;;;;;;;4385913;32;20260;-55
2021/07/22 04:25:15;;;;;;;8.52;6.47;;;;;;;;;;4387706;32;20645;-55
2021/07/22 04:27:41;;;;;;;9.60;6.97;;;;;;;;;;4387338;32;20280;-55
2021/07/22 04:30:07;;;;;;;8.90;6.80;;;;;;;;;;4388022;32;20343;-57
2021/07/22 04:32:33;;;;;;;9.52;6.43;;;;;;;;;;4387509;32;20319;-54
2021/07/22 04:34:58;;;;;;;9.80;6.12;;;;;;;;;;4387027;32;20222;-55
2021/07/22 04:37:24;;;;;;;16.37;6.55;;;;;;;;;;4390118;32;20327;-54
2021/07/22 04:39:49;;;;;;;10.10;6.65;;;;;;;;;;4402575;32;20287;-54
2021/07/22 04:42:14;;;;;;;9.48;6.95;;;;;;;;;;4402950;32;20285;-55
2021/07/22 04:44:40;;;;;;;11.20;7.10;;;;;;;;;;4402943;32;20290;-55
2021/07/22 04:47:05;;;;;;;10.07;6.65;;;;;;;;;;4402491;32;20240;-55
2021/07/22 04:49:32;;;;;;;11.23;7.62;;;;;;;;;;4402990;32;20291;-55
2021/07/22 04:51:58;;;;;;;12.32;8.02;;;;;;;;;;4396937;32;20412;-56
2021/07/22 04:54:23;;;;;;;13.82;8.50;;;;;;;;;;4387654;32;20646;-55
2021/07/22 04:56:49;;;;;;;10.52;7.55;;;;;;;;;;4386597;32;20322;-56
2021/07/22 04:59:15;;;;;;;9.48;7.37;;;;;;;;;;4387924;32;20272;-54
2021/07/22 05:01:40;;;;;;;10.57;7.22;;;;;;;;;;4387898;32;20304;-55
2021/07/22 05:04:06;;;;;;;7.70;5.78;;;;;;;;;;4388099;32;20625;-54
2021/07/22 05:06:35;;;;;;;7.50;5.82;;;;;;;;;;4387842;32;20225;-56
2021/07/22 05:09:01;;;;;;;10.10;6.57;;;;;;;;;;4387857;32;20238;-55
2021/07/22 05:11:26;;;;;;;8.57;6.22;;;;;;;;;;4387450;32;20370;-55
2021/07/22 05:13:52;;;;;;;8.60;5.75;;;;;;;;;;4388099;32;20214;-55
2021/07/22 05:16:20;;;;;;;9.63;5.72;;;;;;;;;;4387715;32;20662;-56
2021/07/22 05:18:46;;;;;;;10.52;7.30;;;;;;;;;;4387459;32;20234;-55
2021/07/22 05:21:12;;;;;;;7.65;6.70;;;;;;;;;;4387560;32;20292;-55
2021/07/22 05:23:40;;;;;;;12.25;6.37;;;;;;;;;;4387531;32;20213;-55
2021/07/22 05:26:10;;;;;;;10.35;6.25;;;;;;;;;;4397673;32;20267;-55
2021/07/22 05:28:35;;;;;;;11.43;7.57;;;;;;;;;;4401625;32;20307;-55
2021/07/22 05:31:07;;;;;;;11.80;6.72;;;;;;;;;;4403293;32;20300;-55
2021/07/22 05:33:36;;;;;;;9.18;6.68;;;;;;;;;;4397287;32;20225;-55
2021/07/22 05:36:03;;;;;;;7.47;5.60;;;;;;;;;;4388400;32;20621;-55
2021/07/22 05:38:30;;;;;;;11.02;7.20;;;;;;;;;;4398991;32;20253;-57
2021/07/22 05:41:01;;;;;;;10.85;6.25;;;;;;;;;;4404517;32;20244;-54
2021/07/22 05:43:27;;;;;;;8.85;5.90;;;;;;;;;;4405503;32;20310;-56
2021/07/22 05:45:53;;;;;;;9.90;6.40;;;;;;;;;;4404357;32;20241;-55
2021/07/22 05:48:19;;;;;;;12.57;8.18;;;;;;;;;;4404222;32;20754;-55
2021/07/22 05:50:46;;;;;;;10.88;7.45;;;;;;;;;;4405414;32;20305;-54
2021/07/22 05:53:11;;;;;;;13.70;7.30;;;;;;;;;;4405244;32;20296;-54
2021/07/22 05:55:37;;;;;;;12.05;5.97;;;;;;;;;;4405924;32;20338;-54
2021/07/22 05:58:02;;;;;;;11.20;8.20;;;;;;;;;;4405673;32;20198;-55
2021/07/22 06:00:28;;;;;;;16.33;8.55;;;;;;;;;;4405360;32;20276;-57
2021/07/22 06:02:53;;;;;;;9.32;6.97;;;;;;;;;;4405363;32;20766;-55
2021/07/22 06:05:19;;;;;;;11.02;7.07;;;;;;;;;;4405069;32;20718;-55
2021/07/22 06:07:46;;;;;;;13.93;6.55;;;;;;;;;;4405382;32;20398;-55
2021/07/22 06:10:12;;;;;;;13.30;6.95;;;;;;;;;;4404640;32;20222;-54
2021/07/22 06:12:38;;;;;;;8.45;5.60;;;;;;;;;;4405639;32;20205;-56
2021/07/22 06:15:05;;;;;;;9.38;6.12;;;;;;;;;;4405017;32;20244;-55
2021/07/22 06:17:30;;;;;;;8.57;6.28;;;;;;;;;;4405497;32;20349;-55
2021/07/22 06:19:55;;;;;;;9.25;5.65;;;;;;;;;;4405627;32;20218;-54
2021/07/22 06:22:21;;;;;;;7.82;5.78;;;;;;;;;;4404659;32;20338;-54
2021/07/22 06:24:46;;;;;;;7.15;4.70;;;;;;;;;;4405364;32;20322;-56
2021/07/22 06:27:12;;;;;;;7.10;5.28;;;;;;;;;;4393148;32;20280;-56
2021/07/22 06:29:39;;;;;;;7.82;4.43;;;;;;;;;;4389688;32;20292;-55
2021/07/22 06:32:04;;;;;;;8.50;4.62;;;;;;;;;;4399544;32;20213;-54
2021/07/22 06:34:30;;;;;;;6.97;4.20;;;;;;;;;;4403914;32;20649;-54
2021/07/22 06:36:55;;;;;;;6.93;4.28;;;;;;;;;;4404819;32;20295;-55
2021/07/22 06:39:21;;;;;;;6.78;4.37;;;;;;;;;;4403388;32;20293;-55
2021/07/22 06:41:46;;;;;;;8.48;5.15;;;;;;;;;;4404427;32;20333;-54
2021/07/22 06:44:12;;;;;;;6.68;4.30;;;;;;;;;;4404456;32;20462;-55
2021/07/22 06:46:38;;;;;;;5.50;3.75;;;;;;;;;;4405289;32;20426;-56
2021/07/22 06:49:03;;;;;;;6.43;4.37;;;;;;;;;;4404674;32;20213;-55
2021/07/22 06:51:29;;;;;;;5.57;3.78;;;;;;;;;;4405226;32;20280;-55
2021/07/22 06:53:54;;;;;;;8.00;4.72;;;;;;;;;;4405019;32;20240;-55
2021/07/22 06:56:20;;;;;;;5.62;4.03;;;;;;;;;;4404166;32;20350;-56
2021/07/22 06:58:48;;;;;;;6.30;4.05;;;;;;;;;;4401833;32;20351;-55
2021/07/22 07:01:14;;;;;;;6.60;4.00;;;;;;;;;;4404543;32;20217;-55
2021/07/22 07:03:40;;;;;;;6.53;4.00;;;;;;;;;;4404629;32;20225;-54
2021/07/22 07:06:05;;;;;;;6.57;4.28;;;;;;;;;;4403371;32;20304;-55
2021/07/22 07:08:31;;;;;;;5.00;3.45;;;;;;;;;;4404626;32;20268;-55
2021/07/22 07:10:56;;;;;;;6.78;3.95;;;;;;;;;;4404656;32;20288;-54
2021/07/22 07:13:22;;;;;;;6.12;3.30;;;;;;;;;;4404265;32;20220;-55
2021/07/22 07:15:47;;;;;;;5.40;3.47;;;;;;;;;;4404443;32;20277;-55
2021/07/22 07:18:12;;;;;;;5.72;3.35;;;;;;;;;;4403432;32;20688;-55
2021/07/22 07:20:38;;;;;;;5.72;3.37;;;;;;;;;;4403013;32;20327;-55
2021/07/22 07:23:03;;;;;;;5.72;3.80;;;;;;;;;;4404166;32;20243;-55
2021/07/22 07:25:29;;;;;;;3.80;2.92;;;;;;;;;;4401532;32;20347;-55
2021/07/22 07:27:55;;;;;;;4.25;3.03;;;;;;;;;;4404019;32;20276;-55
2021/07/22 07:30:20;;;;;;;5.03;3.17;;;;;;;;;;4404342;32;20593;-55
2021/07/22 07:32:47;;;;;;;4.55;3.35;;;;;;;;;;4403674;32;20597;-56
2021/07/22 07:35:13;;;;;;;4.90;3.22;;;;;;;;;;4404170;32;20299;-55
2021/07/22 07:37:38;;;;;;;6.65;3.50;;;;;;;;;;4404502;32;20272;-55
2021/07/22 07:40:05;;;;;;;3.87;3.03;;;;;;;;;;4404160;32;20238;-55
2021/07/22 07:42:31;;;;;;;3.65;3.15;;;;;;;;;;4402734;32;20245;-56
2021/07/22 07:44:56;;;;;;;5.30;3.42;;;;;;;;;;4402410;32;20308;-55
2021/07/22 07:47:22;;;;;;;5.20;2.97;;;;;;;;;;4402726;32;20657;-55
2021/07/22 07:49:47;;;;;;;4.85;2.62;;;;;;;;;;4403679;32;20241;-55
2021/07/22 07:52:13;;;;;;;3.37;2.60;;;;;;;;;;4403503;32;20326;-55
2021/07/22 07:54:38;;;;;;;4.10;2.42;;;;;;;;;;4404016;32;20252;-55
2021/07/22 07:57:04;;;;;;;4.05;2.53;;;;;;;;;;4403775;32;20829;-55
2021/07/22 07:59:29;;;;;;;5.37;2.50;;;;;;;;;;4403709;32;20660;-57
2021/07/22 08:01:54;;;;;;;3.75;3.05;;;;;;;;;;4403751;32;20295;-56
2021/07/22 08:04:20;;;;;;;3.90;2.53;;;;;;;;;;4403798;32;20240;-54
2021/07/22 08:06:45;;;;;;;5.95;2.50;;;;;;;;;;4403588;32;20338;-56
2021/07/22 08:09:11;;;;;;;3.10;2.05;;;;;;;;;;4403999;32;20275;-56
2021/07/22 08:11:36;;;;;;;3.85;2.62;;;;;;;;;;4403324;32;20307;-55
2021/07/22 08:14:02;;;;;;;5.22;2.50;;;;;;;;;;4403291;32;20520;-56
2021/07/22 08:16:27;;;;;;;7.65;3.08;;;;;;;;;;4403055;32;20677;-55
2021/07/22 08:18:53;;;;;;;4.55;2.40;;;;;;;;;;4403481;32;20217;-55
2021/07/22 08:21:18;;;;;;;3.70;2.20;;;;;;;;;;4402938;32;20299;-55
2021/07/22 08:23:45;;;;;;;4.45;2.80;;;;;;;;;;4403788;32;20324;-55
2021/07/22 08:26:10;;;;;;;4.60;2.50;;;;;;;;;;4397176;32;20250;-55
2021/07/22 08:28:37;;;;;;;3.60;2.75;;;;;;;;;;4388781;32;20504;-55
2021/07/22 08:31:03;;;;;;;3.35;2.20;;;;;;;;;;4391953;32;20224;-56
2021/07/22 08:33:29;;;;;;;3.50;2.35;;;;;;;;;;4402927;32;20226;-56
2021/07/22 08:35:55;;;;;;;4.25;2.40;;;;;;;;;;4402642;32;20615;-56
2021/07/22 08:38:21;;;;;;;2.60;2.25;;;;;;;;;;4402801;32;20268;-55
2021/07/22 08:40:46;;;;;;;4.75;2.30;;;;;;;;;;4403374;32;20697;-55
2021/07/22 08:43:11;;;;;;;2.87;2.00;;;;;;;;;;4400930;32;20803;-55
2021/07/22 08:45:37;;;;;;;3.28;2.12;;;;;;;;;;4402819;32;20729;-55
2021/07/22 08:48:03;;;;;;;4.55;2.62;;;;;;;;;;4402709;32;20614;-55
2021/07/22 08:50:28;;;;;;;10.02;2.80;;;;;;;;;;4402289;32;20783;-56
2021/07/22 08:52:54;;;;;;;3.08;1.92;;;;;;;;;;4402866;32;20400;-55
2021/07/22 08:55:20;;;;;;;3.40;2.10;;;;;;;;;;4402325;32;20451;-55
2021/07/22 08:57:47;;;;;;;3.42;2.37;;;;;;;;;;4402381;32;20292;-55
2021/07/22 09:00:15;;;;;;;4.22;2.65;;;;;;;;;;4402480;32;20263;-55
2021/07/22 09:02:42;;;;;;;3.35;2.28;;;;;;;;;;4402564;32;20263;-56
2021/07/22 09:05:08;;;;;;;4.90;1.95;;;;;;;;;;4406402;32;20391;-55
2021/07/22 09:07:34;;;;;;;4.40;2.30;;;;;;;;;;4406305;32;20840;-57
2021/07/22 09:10:05;;;;;;;3.05;1.98;;;;;;;;;;4397250;32;20363;-56
2021/07/22 09:12:54;;;;;;;3.30;2.37;;;;;;;;;;4389637;32;20279;-56
2021/07/22 09:15:27;;;;;;;2.50;2.00;;;;;;;;;;4389692;32;20202;-55
2021/07/22 09:17:53;;;;;;;3.20;2.00;;;;;;;;;;4389481;32;20250;-56
2021/07/22 09:20:26;;;;;;;3.35;2.33;;;;;;;;;;4390413;32;20312;-56
2021/07/22 09:22:52;;;;;;;4.62;2.47;;;;;;;;;;4390528;32;20576;-55
2021/07/22 09:25:18;;;;;;;3.70;2.20;;;;;;;;;;4390326;32;20334;-55
2021/07/22 09:27:45;;;;;;;6.15;2.25;;;;;;;;;;4389395;32;20308;-55
2021/07/22 09:30:19;;;;;;;2.70;1.83;;;;;;;;;;4390351;32;20275;-56
2021/07/22 09:32:49;;;;;;;4.03;2.47;;;;;;;;;;4404409;32;20277;-55
2021/07/22 09:35:20;;;;;;;3.58;2.50;;;;;;;;;;4405620;32;20201;-56
2021/07/22 09:37:48;;;;;;;1.92;1.67;;;;;;;;;;4405562;32;20598;-57
2021/07/22 09:40:26;;;;;;;2.60;2.28;;;;;;;;;;4405233;32;20221;-55
2021/07/22 09:42:54;;;;;;;3.58;2.87;;;;;;;;;;4405264;32;20787;-55
2021/07/22 09:45:25;;;;;;;3.15;2.12;;;;;;;;;;4391665;32;20649;-55
2021/07/22 09:47:51;;;;;;;2.90;2.30;;;;;;;;;;4405177;32;20354;-56
2021/07/22 09:50:22;;;;;;;3.83;2.30;;;;;;;;;;4405078;32;20383;-55
2021/07/22 09:53:04;;;;;;;2.87;2.28;;;;;;;;;;4405029;32;20291;-55
2021/07/22 09:55:31;;;;;;;3.95;2.47;;;;;;;;;;4405061;32;20596;-56
2021/07/22 09:57:59;;;;;;;3.83;2.17;;;;;;;;;;4403835;32;20351;-55
2021/07/22 10:00:26;;;;;;;4.68;2.58;;;;;;;;;;4402938;32;20259;-55
2021/07/22 10:02:53;;;;;;;3.17;2.58;;;;;;;;;;4401816;32;20225;-55
2021/07/22 10:05:24;;;;;;;3.45;2.10;;;;;;;;;;4403225;32;20202;-56
2021/07/22 10:07:54;;;;;;;1.95;1.70;;;;;;;;;;4403732;32;20201;-56
2021/07/22 10:10:24;;;;;;;2.97;2.15;;;;;;;;;;4403309;32;20224;-56
2021/07/22 10:12:53;;;;;;;3.33;1.85;;;;;;;;;;4403509;32;20299;-55
2021/07/22 10:15:20;;;;;;;3.85;1.98;;;;;;;;;;4402604;32;20229;-55
2021/07/22 10:17:47;;;;;;;3.37;2.00;;;;;;;;;;4403872;32;20339;-55
2021/07/22 10:20:14;;;;;;;3.67;2.22;;;;;;;;;;4404950;32;20221;-56
2021/07/22 10:22:41;;;;;;;2.28;1.83;;;;;;;;;;4405015;32;20206;-55
2021/07/22 10:25:10;;;;;;;3.72;2.62;;;;;;;;;;4405189;32;20338;-55
2021/07/22 10:27:37;;;;;;;6.28;1.92;;;;;;;;;;4404778;32;20201;-55
2021/07/22 10:30:07;;;;;;;2.65;2.17;;;;;;;;;;4403958;32;20251;-56
2021/07/22 10:32:34;;;;;;;3.00;2.25;;;;;;;;;;4392013;32;20209;-56
2021/07/22 10:35:01;;;;;;;2.47;1.90;;;;;;;;;;4401920;32;20313;-55
2021/07/22 10:37:27;;;;;;;2.03;1.73;;;;;;;;;;4404336;32;20341;-55
2021/07/22 10:40:09;;;;;;;3.42;2.30;;;;;;;;;;4405139;32;20221;-55
2021/07/22 10:42:41;;;;;;;4.25;2.60;;;;;;;;;;4404342;32;20497;-55
2021/07/22 10:45:33;;;;;;;3.25;2.12;;;;;;;;;;4404096;32;20319;-56
2021/07/22 10:47:59;;;;;;;4.65;2.08;;;;;;;;;;4401949;32;20420;-56
2021/07/22 10:50:40;;;;;;;8.95;2.15;;;;;;;;;;4403961;32;20312;-57
2021/07/22 10:53:06;;;;;;;4.00;2.47;;;;;;;;;;4402763;32;20257;-56
2021/07/22 10:55:40;;;;;;;4.00;2.28;;;;;;;;;;4404225;32;20272;-57
2021/07/22 10:58:24;;;;;;;3.33;2.58;;;;;;;;;;4403735;32;20374;-56
2021/07/22 11:00:51;;;;;;;2.60;1.65;;;;;;;;;;4403790;32;20661;-56
2021/07/22 11:03:38;;;;;;;3.55;2.28;;;;;;;;;;4403404;32;20264;-55
2021/07/22 11:06:10;;;;;;;4.12;2.62;;;;;;;;;;4404428;32;20224;-56
2021/07/22 11:08:37;;;;;;;2.03;1.67;;;;;;;;;;4403233;32;20225;-56
2021/07/22 11:11:09;;;;;;;3.92;2.70;;;;;;;;;;4404494;32;20217;-55
2021/07/22 11:13:35;;;;;;;3.85;2.15;;;;;;;;;;4402232;32;20310;-55
2021/07/22 11:16:07;;;;;;;3.05;2.08;;;;;;;;;;4402581;32;20296;-55
2021/07/22 11:18:39;;;;;;;9.30;2.92;;;;;;;;;;4393916;32;20276;-56
2021/07/22 11:21:05;;;;;;;2.55;2.35;;;;;;;;;;4387941;32;20224;-55
2021/07/22 11:23:30;;;;;;;3.97;2.85;;;;;;;;;;4388324;32;20222;-55
2021/07/22 11:25:56;;;;;;;3.90;2.60;;;;;;;;;;4388056;32;20747;-57
2021/07/22 11:28:23;;;;;;;3.37;2.53;;;;;;;;;;4388267;32;20213;-56
2021/07/22 11:31:21;;;;;;;3.37;2.47;;;;;;;;;;4389097;32;20307;-56
2021/07/22 11:33:47;;;;;;;2.30;1.95;;;;;;;;;;4369298;32;20305;-56
2021/07/22 11:36:17;;;;;;;3.53;2.92;;;;;;;;;;4403440;32;20379;-56
2021/07/22 11:38:49;;;;;;;4.10;2.72;;;;;;;;;;4403695;32;20225;-55
2021/07/22 11:41:15;;;;;;;2.78;2.30;;;;;;;;;;4404019;32;20202;-55
2021/07/22 11:43:42;;;;;;;3.33;2.25;;;;;;;;;;4404105;32;20221;-56
2021/07/22 11:46:10;;;;;;;4.15;2.35;;;;;;;;;;4403780;32;20284;-56
2021/07/22 11:48:36;;;;;;;3.55;2.33;;;;;;;;;;4403985;32;20304;-55
2021/07/22 11:51:13;;;;;;;4.37;2.20;;;;;;;;;;4404408;32;20338;-56
2021/07/22 11:53:39;;;;;;;3.35;2.33;;;;;;;;;;4402878;32;20221;-55
2021/07/22 11:56:12;;;;;;;4.28;2.12;;;;;;;;;;4403949;32;20689;-55
2021/07/22 11:58:38;;;;;;;1.77;1.62;;;;;;;;;;4403342;32;20333;-55
2021/07/22 12:01:05;;;;;;;4.62;2.33;;;;;;;;;;4403440;32;20221;-56
2021/07/22 12:03:30;;;;;;;5.35;1.90;;;;;;;;;;4402959;32;20331;-56
2021/07/22 12:05:56;;;;;;;2.30;1.70;;;;;;;;;;4403930;32;20644;-55
2021/07/22 12:08:22;;;;;;;3.17;2.10;;;;;;;;;;4402407;32;20233;-55
2021/07/22 12:10:49;;;;;;;8.68;2.35;;;;;;;;;;4402711;32;20296;-55
2021/07/22 12:13:15;;;;;;;3.55;2.40;;;;;;;;;;4403025;32;20643;-55
2021/07/22 12:15:43;;;;;;;4.47;2.55;;;;;;;;;;4402096;32;20326;-55
2021/07/22 12:18:09;;;;;;;4.22;2.00;;;;;;;;;;4402621;32;20229;-56
2021/07/22 12:20:35;;;;;;;2.25;1.58;;;;;;;;;;4403389;32;20272;-56
2021/07/22 12:23:29;;;;;;;3.15;2.35;;;;;;;;;;4402912;32;20201;-56
2021/07/22 12:26:04;;;;;;;3.55;1.92;;;;;;;;;;4403149;32;20205;-56
2021/07/22 12:28:31;;;;;;;2.30;2.08;;;;;;;;;;4402966;32;20670;-56
2021/07/22 12:31:20;;;;;;;1.90;1.70;;;;;;;;;;4401729;32;20310;-56
2021/07/22 12:33:59;;;;;;;3.25;1.73;;;;;;;;;;4402982;32;20324;-56
2021/07/22 12:36:25;;;;;;;4.32;2.30;;;;;;;;;;4402887;32;20290;-56
2021/07/22 12:39:17;;;;;;;4.65;2.20;;;;;;;;;;4402221;32;20221;-56
2021/07/22 12:41:45;;;;;;;6.65;2.15;;;;;;;;;;4402591;32;20186;-55
2021/07/22 12:44:30;;;;;;;3.67;2.40;;;;;;;;;;4402371;32;20245;-57
2021/07/22 12:46:56;;;;;;;2.90;2.12;;;;;;;;;;4402922;32;20205;-56
2021/07/22 12:49:41;;;;;;;3.22;2.15;;;;;;;;;;4402788;32;20553;-56
2021/07/22 12:52:08;;;;;;;2.42;2.08;;;;;;;;;;4402630;32;20599;-56
2021/07/22 12:54:33;;;;;;;3.60;2.50;;;;;;;;;;4402575;32;20218;-56
2021/07/22 12:57:01;;;;;;;2.78;1.73;;;;;;;;;;4401137;32;20296;-56
2021/07/22 12:59:33;;;;;;;3.62;2.20;;;;;;;;;;4401268;32;20365;-56
2021/07/22 13:01:59;;;;;;;3.75;2.30;;;;;;;;;;4395334;32;20303;-56
2021/07/22 13:04:25;;;;;;;3.53;1.92;;;;;;;;;;4387564;32;20214;-54
2021/07/22 13:06:52;;;;;;;3.25;2.10;;;;;;;;;;4391796;32;20410;-56
2021/07/22 13:09:18;;;;;;;4.50;2.22;;;;;;;;;;4402309;32;20296;-56
2021/07/22 13:11:52;;;;;;;7.43;1.92;;;;;;;;;;4402244;32;20247;-56
2021/07/22 13:14:18;;;;;;;2.60;2.20;;;;;;;;;;4402690;32;20375;-56
2021/07/22 13:16:43;;;;;;;2.42;1.33;;;;;;;;;;4402550;32;20308;-57
2021/07/22 13:19:08;;;;;;;3.67;2.58;;;;;;;;;;4390407;32;20209;-56
2021/07/22 13:21:34;;;;;;;2.97;2.00;;;;;;;;;;4387536;32;20365;-55
2021/07/22 13:23:59;;;;;;;2.03;1.80;;;;;;;;;;4387364;32;20214;-55
2021/07/22 13:26:25;;;;;;;3.75;2.42;;;;;;;;;;4386544;32;20626;-56
2021/07/22 13:28:50;;;;;;;8.88;2.05;;;;;;;;;;4387235;32;20653;-56
2021/07/22 13:31:16;;;;;;;2.95;1.98;;;;;;;;;;4390417;32;20725;-57
2021/07/22 13:33:43;;;;;;;4.03;2.70;;;;;;;;;;4402309;32;20202;-55
2021/07/22 13:36:08;;;;;;;4.85;1.85;;;;;;;;;;4402707;32;20272;-57
2021/07/22 13:38:39;;;;;;;3.65;1.90;;;;;;;;;;4401023;32;20258;-56
2021/07/22 13:41:04;;;;;;;2.78;2.30;;;;;;;;;;4402267;32;20328;-56
2021/07/22 13:43:31;;;;;;;2.00;1.80;;;;;;;;;;4401853;32;20276;-56
2021/07/22 13:45:56;;;;;;;2.35;1.95;;;;;;;;;;4402747;32;20296;-55
2021/07/22 13:48:22;;;;;;;2.28;1.90;;;;;;;;;;4402088;32;20225;-56
2021/07/22 13:50:47;;;;;;;2.10;1.90;;;;;;;;;;4404792;32;20313;-56
2021/07/22 13:53:13;;;;;;;2.97;2.05;;;;;;;;;;4389776;32;20222;-55
2021/07/22 13:55:38;;;;;;;2.92;1.98;;;;;;;;;;4386477;32;20277;-56
2021/07/22 13:58:04;;;;;;;2.20;1.87;;;;;;;;;;4387916;32;20241;-56
2021/07/22 14:00:29;;;;;;;6.93;2.15;;;;;;;;;;4389250;32;20745;-56
2021/07/22 14:02:55;;;;;;;2.25;1.67;;;;;;;;;;4390631;32;20397;-55
2021/07/22 14:05:20;;;;;;;4.65;2.00;;;;;;;;;;4404507;32;20272;-56
2021/07/22 14:07:46;;;;;;;2.08;1.37;;;;;;;;;;4404362;32;20292;-56
2021/07/22 14:10:12;;;;;;;3.20;1.85;;;;;;;;;;4404542;32;20224;-56
2021/07/22 14:12:37;;;;;;;2.62;1.70;;;;;;;;;;4404921;32;20354;-57
2021/07/22 14:15:03;;;;;;;3.65;2.00;;;;;;;;;;4404573;32;20234;-56
2021/07/22 14:17:28;;;;;;;3.22;1.40;;;;;;;;;;4403701;32;20283;-57
2021/07/22 14:19:54;;;;;;;1.98;1.50;;;;;;;;;;4403500;32;20229;-56
2021/07/22 14:22:19;;;;;;;4.70;2.42;;;;;;;;;;4404788;32;20273;-55
2021/07/22 14:24:45;;;;;;;2.87;1.37;;;;;;;;;;4404653;32;20269;-55
2021/07/22 14:27:10;;;;;;;4.20;2.00;;;;;;;;;;4404291;32;20633;-55
2021/07/22 14:29:36;;;;;;;2.25;1.83;;;;;;;;;;4404844;32;20361;-56
2021/07/22 14:32:01;;;;;;;3.35;2.08;;;;;;;;;;4404826;32;20292;-56
2021/07/22 14:34:29;;;;;;;2.08;1.50;;;;;;;;;;4404373;32;20784;-55
2021/07/22 14:36:54;;;;;;;4.30;3.00;;;;;;;;;;4404529;32;20251;-55
2021/07/22 14:39:20;;;;;;;2.92;1.85;;;;;;;;;;4404330;32;20229;-55